createdAt,value
2023-01-31T00:00:01.409Z,56.92
2023-01-31T00:05:10.582Z,62.45
2023-01-31T00:20:43.520Z,71.63
2023-01-31T00:25:49.057Z,93.63
2023-01-31T00:30:54.930Z,96.33
2023-01-31T00:36:04.670Z,72.00
2023-01-31T00:41:10.884Z,88.53
2023-01-31T00:46:18.111Z,74.70
2023-01-31T00:51:26.503Z,89.47
2023-01-31T00:56:34.205Z,87.90
2023-01-31T01:01:40.836Z,81.90
2023-01-31T01:06:46.733Z,57.53
2023-01-31T01:11:52.662Z,75.67
2023-01-31T01:17:00.520Z,77.95
2023-01-31T01:22:06.453Z,90.18
2023-01-31T01:27:14.443Z,123.77
2023-01-31T01:32:21.078Z,54.03
2023-01-31T01:37:27.471Z,70.07
2023-01-31T01:42:39.134Z,70.97
2023-01-31T01:47:58.999Z,70.90
2023-01-31T01:53:08.187Z,56.45
2023-01-31T01:58:18.572Z,101.18
2023-01-31T02:03:25.272Z,79.18
2023-01-31T02:08:34.727Z,71.22
2023-01-31T02:13:43.726Z,71.70
2023-01-31T02:18:52.954Z,42.88
2023-01-31T02:24:23.992Z,55.67
2023-01-31T02:29:36.786Z,59.28
2023-01-31T02:34:53.735Z,49.67
2023-01-31T02:40:12.179Z,34.97
2023-01-31T02:45:24.682Z,51.72
2023-01-31T02:51:00.949Z,41.58
2023-01-31T02:56:28.429Z,34.78
2023-01-31T03:02:01.887Z,52.28
2023-01-31T03:07:20.063Z,44.60
2023-01-31T03:12:39.040Z,58.33
2023-01-31T03:18:04.789Z,58.05
2023-01-31T03:23:15.700Z,103.30
2023-01-31T03:28:26.740Z,77.30
2023-01-31T03:33:38.079Z,68.57
2023-01-31T03:39:04.152Z,63.92
2023-01-31T03:44:41.683Z,64.13
2023-01-31T03:49:51.279Z,61.83
2023-01-31T03:55:09.688Z,84.68
2023-01-31T04:00:19.707Z,60.03
2023-01-31T04:05:33.918Z,39.13
2023-01-31T04:10:42.679Z,76.05
2023-01-31T04:20:59.233Z,81.72
2023-01-31T04:26:05.271Z,65.07
2023-01-31T04:31:16.013Z,63.45
2023-01-31T04:36:22.376Z,61.60
2023-01-31T04:41:32.083Z,66.78
2023-01-31T04:46:41.260Z,59.35
2023-01-31T04:51:49.243Z,65.28
2023-01-31T04:56:56.312Z,68.53
2023-01-31T05:02:08.399Z,61.92
2023-01-31T05:07:22.025Z,44.30
2023-01-31T05:12:35.575Z,38.03
2023-01-31T05:17:49.840Z,71.70
2023-01-31T05:23:02.537Z,57.25
2023-01-31T05:28:12.671Z,52.65
2023-01-31T05:33:37.276Z,65.28
2023-01-31T05:38:50.441Z,56.77
2023-01-31T05:44:01.438Z,55.97
2023-01-31T05:49:16.711Z,44.92
2023-01-31T05:54:33.047Z,51.63
2023-01-31T06:00:07.923Z,54.28
2023-01-31T06:05:35.375Z,49.78
2023-01-31T06:10:43.115Z,42.70
2023-01-31T06:15:52.496Z,41.58
2023-01-31T06:21:02.510Z,46.35
2023-01-31T06:26:08.996Z,46.37
2023-01-31T06:31:19.624Z,52.10
2023-01-31T06:36:28.570Z,49.58
2023-01-31T06:41:39.565Z,61.13
2023-01-31T06:46:47.873Z,47.33
2023-01-31T06:51:59.893Z,42.58
2023-01-31T06:57:08.990Z,43.17
2023-01-31T07:02:15.509Z,41.70
2023-01-31T07:07:23.098Z,41.97
2023-01-31T07:12:38.578Z,51.53
2023-01-31T07:17:45.815Z,39.72
2023-01-31T07:23:00.749Z,24.45
2023-01-31T07:28:07.873Z,53.08
2023-01-31T08:41:02.215Z,48.33
2023-01-31T08:46:08.797Z,40.22
2023-01-31T08:51:16.096Z,36.67
2023-01-31T08:56:26.886Z,28.98
2023-01-31T09:01:34.227Z,38.33
2023-01-31T09:06:44.092Z,40.33
2023-01-31T09:11:53.563Z,41.38
2023-01-31T09:17:06.859Z,38.92
2023-01-31T09:22:13.877Z,38.88
2023-01-31T09:27:21.769Z,39.35
2023-01-31T09:32:29.015Z,38.13
2023-01-31T09:37:40.573Z,42.53
2023-01-31T09:42:50.027Z,42.35
2023-01-31T09:48:00.759Z,40.30
2023-01-31T09:53:06.870Z,47.05
2023-01-31T09:58:28.812Z,42.13
2023-01-31T10:03:48.817Z,37.78
2023-01-31T10:08:55.736Z,38.22
2023-01-31T10:14:28.400Z,36.92
2023-01-31T10:19:48.449Z,32.83
2023-01-31T10:25:02.350Z,38.30
2023-01-31T10:30:21.389Z,38.70
2023-01-31T10:35:40.801Z,36.85
2023-01-31T10:40:50.973Z,40.22
2023-01-31T10:46:04.584Z,43.30
2023-01-31T10:51:20.878Z,46.13
2023-01-31T10:56:35.831Z,36.03
2023-01-31T11:01:41.840Z,67.22
2023-01-31T11:06:49.413Z,77.28
2023-01-31T11:12:07.340Z,51.00
2023-01-31T11:17:22.486Z,71.90
2023-01-31T11:22:39.105Z,60.97
2023-01-31T11:32:54.627Z,58.97
2023-01-31T11:38:32.011Z,62.30
2023-01-31T11:43:42.447Z,57.03
2023-01-31T11:48:50.650Z,65.57
2023-01-31T11:54:10.564Z,59.10
2023-01-31T12:00:10.237Z,67.40
2023-01-31T12:05:04.356Z,66.95
2023-01-31T12:10:51.108Z,70.30
2023-01-31T12:16:08.192Z,77.00
2023-01-31T12:21:46.658Z,68.57
2023-01-31T12:27:30.367Z,69.57
2023-01-31T12:33:06.970Z,71.38
2023-01-31T12:38:56.960Z,62.60
2023-01-31T12:44:43.524Z,64.75
2023-01-31T12:50:15.087Z,66.82
2023-01-31T12:56:11.197Z,66.30
2023-01-31T13:02:01.287Z,60.05
2023-01-31T13:07:23.919Z,62.97
2023-01-31T13:12:52.246Z,66.82
2023-01-31T13:18:07.105Z,63.78
2023-01-31T13:23:52.112Z,57.63
2023-01-31T13:29:35.977Z,58.13
2023-01-31T13:35:26.564Z,69.03
2023-01-31T13:40:55.973Z,63.15
2023-01-31T13:46:26.526Z,64.03
2023-01-31T13:51:59.599Z,70.25
2023-01-31T13:57:25.242Z,60.22
2023-01-31T14:02:32.542Z,58.63
2023-01-31T14:07:52.441Z,72.25
2023-01-31T14:13:30.684Z,75.60
2023-01-31T14:18:50.697Z,65.85
2023-01-31T14:24:17.861Z,78.10
2023-01-31T14:29:35.092Z,67.63
2023-01-31T14:35:31.591Z,52.28
2023-01-31T14:41:15.075Z,46.95
2023-01-31T14:46:59.752Z,50.55
2023-01-31T14:57:50.820Z,53.78
2023-01-31T15:03:31.539Z,42.75
2023-01-31T15:08:53.371Z,68.30
2023-01-31T15:14:33.739Z,46.50
2023-01-31T15:20:00.322Z,65.68
2023-01-31T15:25:23.931Z,47.63
2023-01-31T15:30:42.176Z,49.95
2023-01-31T15:36:02.309Z,55.35
2023-01-31T15:41:25.645Z,60.50
2023-01-31T15:46:38.905Z,48.28
2023-01-31T15:51:46.830Z,43.75
2023-01-31T15:56:54.156Z,26.67
2023-01-31T16:02:06.983Z,50.60
2023-01-31T16:07:24.120Z,44.35
2023-01-31T16:12:34.805Z,56.13
2023-01-31T16:17:46.085Z,54.53
2023-01-31T16:22:59.397Z,46.05
2023-01-31T16:28:14.009Z,56.15
2023-01-31T16:33:25.431Z,53.58
2023-01-31T16:38:31.896Z,34.13
2023-01-31T16:43:39.290Z,49.85
2023-01-31T16:48:50.977Z,50.90
2023-01-31T16:54:21.156Z,44.88
2023-01-31T16:59:39.100Z,49.05
2023-01-31T17:04:47.147Z,39.72
2023-01-31T17:09:58.108Z,45.95
2023-01-31T17:15:05.213Z,47.72
2023-01-31T17:20:18.944Z,40.50
2023-01-31T17:25:33.396Z,44.97
2023-01-31T17:30:46.014Z,53.70
2023-01-31T17:35:53.398Z,51.95
2023-01-31T17:40:59.682Z,41.58
2023-01-31T17:51:10.756Z,47.28
2023-01-31T17:56:16.263Z,47.05
2023-01-31T18:01:21.928Z,31.10
2023-01-31T18:06:27.951Z,41.60
2023-01-31T18:11:33.922Z,43.47
2023-01-31T18:16:39.886Z,34.40
2023-01-31T18:21:54.359Z,43.20
2023-01-31T18:27:00.926Z,38.17
2023-01-31T18:32:09.270Z,41.15
2023-01-31T18:37:21.412Z,42.85
2023-01-31T18:42:27.407Z,42.22
2023-01-31T18:47:32.892Z,43.97
2023-01-31T18:52:38.567Z,28.90
2023-01-31T18:57:44.167Z,37.60
2023-01-31T19:02:57.367Z,31.73
2023-01-31T19:08:03.067Z,38.28
2023-01-31T19:13:08.704Z,30.97
2023-01-31T19:18:16.268Z,47.33
2023-01-31T19:23:22.175Z,48.75
2023-01-31T19:28:28.396Z,41.03
2023-01-31T19:33:34.132Z,45.00
2023-01-31T19:38:40.663Z,49.75
2023-01-31T19:43:46.651Z,45.40
2023-01-31T19:48:52.475Z,47.33
2023-01-31T19:54:07.600Z,48.17
2023-01-31T19:59:13.991Z,53.88
2023-01-31T20:04:19.958Z,41.35
2023-01-31T20:09:25.675Z,44.00
2023-01-31T20:14:31.439Z,44.78
2023-01-31T20:19:36.914Z,37.83
2023-01-31T20:24:42.926Z,47.37
2023-01-31T20:29:48.354Z,38.50
2023-01-31T20:34:54.391Z,48.58
2023-01-31T20:40:00.487Z,51.38
2023-01-31T20:45:07.054Z,49.47
2023-01-31T20:50:13.459Z,52.58
2023-01-31T21:00:28.343Z,36.17
2023-01-31T21:05:35.824Z,43.03
2023-01-31T21:10:42.467Z,36.80
2023-01-31T21:15:55.265Z,44.65
2023-01-31T21:21:02.796Z,46.63
2023-01-31T21:26:10.620Z,39.10
2023-01-31T21:31:19.157Z,68.35
2023-01-31T21:36:27.326Z,47.30
2023-01-31T21:41:51.636Z,45.15
2023-01-31T21:46:57.361Z,54.13
2023-01-31T21:52:03.350Z,37.73
2023-01-31T21:57:08.873Z,61.92
2023-01-31T22:02:14.592Z,70.93
2023-01-31T22:07:20.567Z,69.33
2023-01-31T22:12:26.496Z,68.70
2023-01-31T22:17:32.599Z,66.90
2023-01-31T22:22:38.236Z,56.92
2023-01-31T22:27:44.122Z,59.63
2023-01-31T22:32:49.709Z,57.20
2023-01-31T22:37:55.601Z,53.07
2023-01-31T22:43:01.742Z,75.87
2023-01-31T22:48:07.895Z,59.75
2023-01-31T22:53:14.569Z,76.72
2023-01-31T22:58:21.464Z,77.72
2023-01-31T23:03:27.992Z,75.07
2023-01-31T23:08:33.618Z,74.40
2023-01-31T23:13:41.437Z,46.83
2023-01-31T23:18:47.578Z,56.13
2023-01-31T23:23:53.237Z,79.68
2023-01-31T23:28:58.773Z,36.47
2023-01-31T23:34:07.706Z,35.23
2023-01-31T23:39:13.546Z,55.00
2023-01-31T23:44:19.113Z,79.83
2023-01-31T23:49:25.216Z,62.90
2023-01-31T23:54:30.798Z,78.35
2023-01-31T23:59:39.134Z,99.47
